createdAt,value
2022-11-02T00:00:30.296Z,12.32
2022-11-02T00:02:58.347Z,12.31
2022-11-02T00:05:27.849Z,12.31
2022-11-02T00:07:56.783Z,12.32
2022-11-02T00:10:25.630Z,12.27
2022-11-02T00:12:54.024Z,12.30
2022-11-02T00:15:23.227Z,12.29
2022-11-02T00:17:53.811Z,12.29
2022-11-02T00:20:22.197Z,12.27
2022-11-02T00:22:54.758Z,12.24
2022-11-02T00:25:24.819Z,12.16
2022-11-02T00:27:53.043Z,12.12
2022-11-02T00:30:21.243Z,12.12
2022-11-02T00:32:49.179Z,11.99
2022-11-02T00:35:17.117Z,12.05
2022-11-02T00:37:44.939Z,12.03
2022-11-02T00:40:14.480Z,11.98
2022-11-02T00:42:42.350Z,11.97
2022-11-02T00:45:10.867Z,11.96
2022-11-02T00:47:38.966Z,11.83
2022-11-02T00:50:07.768Z,11.89
2022-11-02T00:52:39.872Z,11.95
2022-11-02T00:55:10.992Z,11.96
2022-11-02T00:57:44.222Z,11.99
2022-11-02T01:00:13.006Z,12.02
2022-11-02T01:02:40.968Z,12.04
2022-11-02T01:05:11.613Z,12.04
2022-11-02T01:07:40.294Z,12.03
2022-11-02T01:10:10.116Z,12.07
2022-11-02T01:12:38.639Z,12.09
2022-11-02T01:15:10.350Z,12.09
2022-11-02T01:17:39.200Z,12.11
2022-11-02T01:20:08.122Z,12.10
2022-11-02T01:22:35.988Z,12.06
2022-11-02T01:25:04.044Z,11.91
2022-11-02T01:27:32.032Z,11.87
2022-11-02T01:29:59.881Z,11.72
2022-11-02T01:32:31.483Z,11.69
2022-11-02T01:34:59.358Z,11.76
2022-11-02T01:37:27.178Z,11.80
2022-11-02T01:39:54.978Z,11.84
2022-11-02T01:42:24.772Z,11.87
2022-11-02T01:44:52.878Z,11.76
2022-11-02T01:47:25.073Z,11.60
2022-11-02T01:49:59.065Z,11.54
2022-11-02T01:52:31.810Z,11.51
2022-11-02T01:55:04.008Z,11.51
2022-11-02T01:57:34.552Z,11.48
2022-11-02T02:00:07.127Z,11.41
2022-11-02T02:02:46.380Z,11.09
2022-11-02T02:05:17.609Z,11.06
2022-11-02T02:07:46.850Z,10.94
2022-11-02T02:10:15.522Z,10.89
2022-11-02T02:12:44.743Z,10.85
2022-11-02T02:15:16.715Z,10.94
2022-11-02T02:17:50.692Z,11.03
2022-11-02T02:20:32.905Z,11.11
2022-11-02T02:23:27.854Z,11.15
2022-11-02T02:26:22.291Z,11.05
2022-11-02T02:28:54.978Z,10.99
2022-11-02T02:31:29.900Z,11.07
2022-11-02T02:34:05.417Z,11.13
2022-11-02T02:36:38.741Z,11.13
2022-11-02T02:39:11.990Z,11.16
2022-11-02T02:41:41.943Z,11.18
2022-11-02T02:44:14.830Z,10.94
2022-11-02T02:46:49.046Z,11.11
2022-11-02T02:49:23.512Z,11.00
2022-11-02T02:51:52.712Z,10.86
2022-11-02T02:54:25.299Z,10.80
2022-11-02T02:56:57.972Z,10.79
2022-11-02T02:59:30.808Z,10.81
2022-11-02T03:02:00.862Z,10.83
2022-11-02T03:04:28.760Z,10.79
2022-11-02T03:06:59.518Z,10.87
2022-11-02T03:09:32.982Z,10.92
2022-11-02T03:12:16.319Z,11.01
2022-11-02T03:14:58.261Z,11.14
2022-11-02T03:17:34.126Z,11.18
2022-11-02T03:20:12.558Z,11.28
2022-11-02T03:22:50.761Z,11.27
2022-11-02T03:25:23.521Z,11.27
2022-11-02T03:27:56.508Z,11.27
2022-11-02T03:30:29.076Z,11.24
2022-11-02T03:33:06.279Z,11.23
2022-11-02T03:35:42.132Z,11.24
2022-11-02T03:38:15.666Z,11.25
2022-11-02T03:40:46.886Z,11.24
2022-11-02T03:43:16.475Z,11.22
2022-11-02T03:45:49.659Z,11.28
2022-11-02T03:48:20.262Z,11.30
2022-11-02T03:50:51.940Z,11.30
2022-11-02T03:53:27.918Z,11.32
2022-11-02T03:56:03.611Z,11.16
2022-11-02T03:58:31.583Z,11.06
2022-11-02T04:01:03.758Z,11.06
2022-11-02T04:03:34.870Z,11.11
2022-11-02T04:06:02.803Z,11.16
2022-11-02T04:08:37.543Z,11.21
2022-11-02T04:11:26.488Z,11.23
2022-11-02T04:14:18.436Z,11.24
2022-11-02T04:16:48.272Z,11.25
2022-11-02T04:19:28.106Z,11.28
2022-11-02T04:22:18.036Z,11.28
2022-11-02T04:25:07.089Z,11.21
2022-11-02T04:27:35.967Z,11.20
2022-11-02T04:30:05.558Z,11.21
2022-11-02T04:32:57.507Z,11.24
2022-11-02T04:35:27.642Z,11.30
2022-11-02T04:38:13.262Z,11.25
2022-11-02T04:40:41.735Z,11.32
2022-11-02T04:43:10.289Z,11.31
2022-11-02T04:45:38.279Z,11.34
2022-11-02T04:48:09.383Z,11.30
2022-11-02T04:50:37.846Z,11.35
2022-11-02T04:53:08.187Z,11.39
2022-11-02T04:55:38.612Z,11.41
2022-11-02T04:58:06.850Z,11.40
2022-11-02T05:00:34.889Z,11.41
2022-11-02T05:03:05.701Z,11.43
2022-11-02T05:05:37.406Z,11.47
2022-11-02T05:08:06.509Z,11.42
2022-11-02T05:10:35.359Z,11.43
2022-11-02T05:13:03.245Z,11.42
2022-11-02T05:15:34.804Z,11.39
2022-11-02T05:18:07.149Z,11.35
2022-11-02T05:20:37.851Z,11.33
2022-11-02T05:23:06.735Z,11.36
2022-11-02T05:25:35.789Z,11.37
2022-11-02T05:28:03.587Z,11.33
2022-11-02T05:30:31.418Z,11.31
2022-11-02T05:32:59.365Z,11.32
2022-11-02T05:35:28.409Z,11.37
2022-11-02T05:37:57.614Z,11.38
2022-11-02T05:40:25.626Z,11.41
2022-11-02T05:43:00.188Z,11.44
2022-11-02T05:45:29.170Z,11.39
2022-11-02T05:47:57.064Z,11.46
2022-11-02T05:50:24.872Z,11.48
2022-11-02T05:52:53.941Z,11.51
2022-11-02T05:55:23.151Z,11.55
2022-11-02T05:57:54.332Z,11.53
2022-11-02T06:00:22.962Z,11.52
2022-11-02T06:02:56.289Z,11.54
2022-11-02T06:05:24.253Z,11.55
2022-11-02T06:07:52.728Z,11.63
2022-11-02T06:10:20.614Z,11.64
2022-11-02T06:12:55.640Z,11.65
2022-11-02T06:15:23.723Z,11.69
2022-11-02T06:17:52.602Z,11.75
2022-11-02T06:20:20.923Z,11.72
2022-11-02T06:22:49.193Z,11.69
2022-11-02T06:25:17.947Z,11.57
2022-11-02T06:27:55.039Z,11.61
2022-11-02T06:30:25.143Z,11.67
2022-11-02T06:32:54.494Z,11.75
2022-11-02T06:35:23.748Z,11.84
2022-11-02T06:37:51.751Z,11.91
2022-11-02T06:40:21.454Z,11.94
2022-11-02T06:43:15.320Z,11.98
2022-11-02T06:45:44.753Z,12.04
2022-11-02T06:48:12.522Z,12.05
2022-11-02T06:50:40.343Z,12.01
2022-11-02T06:53:08.496Z,12.07
2022-11-02T06:55:36.428Z,12.03
2022-11-02T06:58:05.631Z,12.00
2022-11-02T07:00:33.532Z,11.95
2022-11-02T07:03:02.546Z,11.89
2022-11-02T07:05:30.911Z,11.87
2022-11-02T07:07:58.849Z,11.84
2022-11-02T07:10:27.516Z,11.78
2022-11-02T07:12:56.560Z,11.68
2022-11-02T07:15:27.479Z,11.74
2022-11-02T07:17:55.561Z,11.75
2022-11-02T07:20:23.462Z,11.77
2022-11-02T07:22:55.404Z,11.77
2022-11-02T07:25:24.105Z,11.77
2022-11-02T07:27:52.118Z,11.84
2022-11-02T07:30:19.907Z,11.90
2022-11-02T07:32:49.525Z,11.88
2022-11-02T07:35:17.813Z,11.83
2022-11-02T07:37:45.710Z,11.79
2022-11-02T07:40:14.991Z,11.82
2022-11-02T07:42:46.679Z,11.83
2022-11-02T07:45:17.133Z,11.70
2022-11-02T07:47:45.296Z,11.71
2022-11-02T07:50:16.836Z,11.62
2022-11-02T07:52:46.016Z,11.67
2022-11-02T07:55:14.719Z,11.70
2022-11-02T07:57:43.661Z,11.78
2022-11-02T08:00:12.677Z,11.79
2022-11-02T08:02:40.545Z,11.84
2022-11-02T08:05:09.236Z,11.78
2022-11-02T08:07:38.421Z,11.98
2022-11-02T08:10:07.162Z,12.07
2022-11-02T08:12:37.532Z,12.12
2022-11-02T08:15:07.673Z,12.20
2022-11-02T08:17:36.176Z,12.26
2022-11-02T08:20:04.306Z,12.33
2022-11-02T08:22:32.129Z,12.39
2022-11-02T08:25:01.320Z,12.44
2022-11-02T08:27:29.276Z,12.49
2022-11-02T08:29:57.144Z,12.51
2022-11-02T08:32:25.541Z,12.62
2022-11-02T08:34:53.306Z,12.67
2022-11-02T08:37:21.136Z,12.71
2022-11-02T08:39:48.937Z,12.73
2022-11-02T08:42:18.330Z,12.75
2022-11-02T08:44:46.117Z,12.80
2022-11-02T08:47:15.079Z,12.82
2022-11-02T08:49:43.010Z,12.80
2022-11-02T08:52:10.806Z,12.87
2022-11-02T08:54:38.610Z,12.88
2022-11-02T08:57:06.424Z,12.92
2022-11-02T08:59:35.554Z,12.92
2022-11-02T09:02:03.443Z,12.98
2022-11-02T09:04:31.427Z,12.94
2022-11-02T09:06:59.277Z,13.06
2022-11-02T09:09:27.152Z,13.07
2022-11-02T09:11:54.961Z,13.08
2022-11-02T09:14:22.797Z,13.08
2022-11-02T09:16:51.990Z,13.09
2022-11-02T09:19:19.777Z,13.11
2022-11-02T09:21:49.726Z,13.14
2022-11-02T09:24:17.535Z,13.16
2022-11-02T09:26:45.371Z,13.20
2022-11-02T09:29:13.225Z,13.23
2022-11-02T09:31:41.097Z,13.25
2022-11-02T09:34:10.470Z,13.29
2022-11-02T09:36:38.323Z,13.32
2022-11-02T09:39:06.147Z,13.35
2022-11-02T09:41:38.366Z,13.38
2022-11-02T09:44:12.203Z,13.43
2022-11-02T09:46:42.783Z,13.47
2022-11-02T09:49:16.376Z,13.54
2022-11-02T09:51:47.651Z,13.60
2022-11-02T09:54:19.405Z,13.66
2022-11-02T09:56:48.338Z,13.73
2022-11-02T09:59:17.688Z,13.76
2022-11-02T10:01:55.585Z,13.80
2022-11-02T10:04:58.249Z,13.87
2022-11-02T10:07:39.395Z,13.91
2022-11-02T10:10:14.691Z,13.99
2022-11-02T10:12:52.346Z,14.02
2022-11-02T10:15:23.587Z,14.04
2022-11-02T10:17:56.882Z,14.05
2022-11-02T10:20:30.994Z,14.03
2022-11-02T10:23:04.305Z,13.96
2022-11-02T10:25:32.302Z,14.05
2022-11-02T10:28:06.042Z,14.07
2022-11-02T10:30:33.867Z,14.08
2022-11-02T10:33:01.792Z,14.08
2022-11-02T10:36:04.376Z,14.15
2022-11-02T10:38:40.676Z,14.24
2022-11-02T10:41:27.892Z,14.30
2022-11-02T10:44:10.980Z,14.32
2022-11-02T10:47:04.254Z,14.34
2022-11-02T10:49:57.467Z,14.38
2022-11-02T10:52:34.263Z,14.42
2022-11-02T10:55:02.139Z,14.45
2022-11-02T10:57:31.175Z,14.46
2022-11-02T11:00:25.247Z,14.49
2022-11-02T11:03:11.041Z,14.54
2022-11-02T11:05:55.818Z,14.59
2022-11-02T11:08:36.693Z,14.65
2022-11-02T11:11:12.511Z,14.59
2022-11-02T11:16:36.536Z,14.83
2022-11-02T11:21:54.534Z,14.86
2022-11-02T11:24:29.516Z,15.03
2022-11-02T11:27:06.455Z,15.13
2022-11-02T11:29:35.750Z,15.16
2022-11-02T11:32:04.410Z,15.25
2022-11-02T11:34:34.516Z,15.40
2022-11-02T11:37:07.094Z,15.66
2022-11-02T11:39:37.340Z,15.75
2022-11-02T11:42:06.257Z,15.83
2022-11-02T11:44:35.430Z,15.92
2022-11-02T11:47:04.467Z,16.07
2022-11-02T11:50:02.990Z,16.07
2022-11-02T11:52:31.585Z,16.16
2022-11-02T11:55:02.506Z,16.28
2022-11-02T11:57:32.982Z,16.37
2022-11-02T12:00:04.833Z,16.55
2022-11-02T12:02:40.932Z,16.70
2022-11-02T12:05:15.468Z,16.76
2022-11-02T12:08:18.259Z,16.77
2022-11-02T12:11:02.186Z,16.82
2022-11-02T12:13:52.775Z,16.84
2022-11-02T12:16:29.938Z,16.94
2022-11-02T12:19:16.493Z,17.10
2022-11-02T12:21:56.541Z,17.09
2022-11-02T12:24:43.933Z,17.13
2022-11-02T12:27:27.827Z,17.23
2022-11-02T12:30:14.502Z,17.23
2022-11-02T12:33:04.387Z,17.36
2022-11-02T12:35:59.545Z,17.53
2022-11-02T12:38:44.454Z,17.69
2022-11-02T12:41:15.538Z,17.84
2022-11-02T12:43:47.470Z,17.90
2022-11-02T12:46:28.199Z,17.82
2022-11-02T12:49:08.885Z,17.67
2022-11-02T12:51:41.667Z,17.51
2022-11-02T12:54:12.762Z,17.49
2022-11-02T12:56:47.289Z,17.40
2022-11-02T12:59:22.545Z,17.38
2022-11-02T13:01:54.088Z,17.39
2022-11-02T13:04:29.513Z,17.50
2022-11-02T13:07:04.247Z,17.47
2022-11-02T13:09:37.118Z,17.35
2022-11-02T13:12:09.460Z,17.40
2022-11-02T13:14:41.719Z,17.53
2022-11-02T13:17:15.868Z,17.57
2022-11-02T13:19:49.127Z,17.56
2022-11-02T13:22:21.059Z,17.56
2022-11-02T13:24:53.405Z,17.52
2022-11-02T13:27:36.882Z,17.54
2022-11-02T13:30:14.649Z,17.62
2022-11-02T13:32:46.493Z,17.59
2022-11-02T13:35:19.821Z,17.59
2022-11-02T13:37:52.610Z,17.59
2022-11-02T13:40:25.232Z,17.69
2022-11-02T13:43:39.019Z,17.73
2022-11-02T13:46:26.947Z,17.75
2022-11-02T13:49:00.165Z,17.73
2022-11-02T13:51:35.812Z,17.73
2022-11-02T13:54:12.621Z,17.69
2022-11-02T13:56:40.814Z,17.73
2022-11-02T13:59:10.291Z,17.76
2022-11-02T14:01:42.469Z,17.71
2022-11-02T14:04:13.455Z,17.53
2022-11-02T14:06:52.397Z,17.71
2022-11-02T14:09:32.025Z,17.75
2022-11-02T14:12:40.383Z,17.76
2022-11-02T14:15:42.428Z,17.73
2022-11-02T14:18:16.664Z,17.63
2022-11-02T14:20:47.458Z,17.59
2022-11-02T14:23:35.742Z,17.52
2022-11-02T14:26:03.556Z,17.40
2022-11-02T14:28:33.556Z,17.38
2022-11-02T14:31:41.035Z,17.29
2022-11-02T14:34:28.187Z,17.11
2022-11-02T14:37:12.675Z,17.06
2022-11-02T14:39:51.756Z,16.88
2022-11-02T14:42:37.876Z,16.93
2022-11-02T14:45:18.460Z,16.86
2022-11-02T14:47:46.425Z,16.81
2022-11-02T14:50:20.017Z,16.67
2022-11-02T14:53:00.634Z,16.56
2022-11-02T14:55:30.255Z,16.45
2022-11-02T14:58:01.606Z,16.35
2022-11-02T15:00:37.493Z,16.23
2022-11-02T15:03:08.854Z,16.14
2022-11-02T15:05:39.620Z,16.06
2022-11-02T15:08:09.786Z,15.93
2022-11-02T15:10:41.763Z,15.89
2022-11-02T15:13:47.791Z,15.80
2022-11-02T15:16:25.752Z,15.70
2022-11-02T15:18:55.583Z,15.62
2022-11-02T15:21:26.391Z,15.62
2022-11-02T15:24:15.557Z,15.59
2022-11-02T15:26:53.790Z,15.51
2022-11-02T15:29:34.352Z,15.46
2022-11-02T15:32:03.102Z,15.40
2022-11-02T15:34:36.469Z,15.35
2022-11-02T15:37:06.247Z,15.28
2022-11-02T15:39:34.548Z,15.22
2022-11-02T15:42:05.426Z,15.18
2022-11-02T15:45:05.403Z,15.14
2022-11-02T15:47:53.114Z,15.10
2022-11-02T15:50:31.210Z,15.06
2022-11-02T15:53:25.875Z,15.02
2022-11-02T15:56:09.888Z,15.00
2022-11-02T15:58:53.418Z,14.98
2022-11-02T16:01:22.887Z,14.96
2022-11-02T16:03:58.249Z,14.91
2022-11-02T16:06:27.887Z,14.85
2022-11-02T16:08:58.626Z,14.85
2022-11-02T16:11:26.964Z,14.85
2022-11-02T16:14:08.683Z,14.83
2022-11-02T16:16:48.168Z,14.79
2022-11-02T16:19:20.432Z,14.83
2022-11-02T16:21:48.904Z,14.83
2022-11-02T16:24:18.345Z,14.79
2022-11-02T16:26:47.441Z,14.78
2022-11-02T16:29:26.708Z,14.73
2022-11-02T16:31:54.583Z,14.70
2022-11-02T16:34:25.467Z,14.67
2022-11-02T16:36:53.525Z,14.66
2022-11-02T16:39:27.747Z,14.64
2022-11-02T16:41:57.502Z,14.65
2022-11-02T16:44:26.922Z,14.65
2022-11-02T16:46:58.320Z,14.64
2022-11-02T16:49:27.717Z,14.63
2022-11-02T16:51:57.811Z,14.60
2022-11-02T16:54:39.635Z,14.57
2022-11-02T16:57:13.788Z,14.54
2022-11-02T16:59:51.278Z,14.50
2022-11-02T17:02:20.390Z,14.48
2022-11-02T17:04:49.092Z,14.40
2022-11-02T17:07:21.959Z,14.43
2022-11-02T17:09:54.883Z,14.43
2022-11-02T17:12:29.542Z,14.40
2022-11-02T17:14:58.685Z,14.36
2022-11-02T17:17:38.172Z,14.26
2022-11-02T17:20:30.055Z,14.27
2022-11-02T17:23:00.458Z,14.22
2022-11-02T17:25:32.014Z,14.15
2022-11-02T17:28:01.682Z,14.10
2022-11-02T17:30:44.604Z,14.06
2022-11-02T17:33:28.423Z,14.00
2022-11-02T17:35:59.082Z,14.00
2022-11-02T17:38:28.293Z,13.98
2022-11-02T17:41:00.046Z,13.96
2022-11-02T17:43:27.499Z,13.98
2022-11-02T17:45:57.099Z,13.97
2022-11-02T17:48:25.474Z,13.98
2022-11-02T17:50:55.071Z,13.96
2022-11-02T17:53:23.934Z,13.94
2022-11-02T17:55:52.063Z,13.91
2022-11-02T17:58:21.198Z,13.88
2022-11-02T18:00:49.203Z,13.85
2022-11-02T18:03:22.332Z,13.82
2022-11-02T18:05:55.814Z,13.72
2022-11-02T18:08:25.184Z,13.73
2022-11-02T18:10:53.716Z,13.71
2022-11-02T18:13:24.621Z,13.70
2022-11-02T18:15:52.493Z,13.66
2022-11-02T18:18:20.264Z,13.65
2022-11-02T18:20:48.154Z,13.63
2022-11-02T18:23:19.487Z,13.61
2022-11-02T18:25:47.330Z,13.60
2022-11-02T18:28:15.213Z,13.59
2022-11-02T18:30:45.057Z,13.55
2022-11-02T18:33:14.153Z,13.53
2022-11-02T18:35:44.032Z,13.50
2022-11-02T18:38:11.962Z,13.49
2022-11-02T18:40:39.814Z,13.47
2022-11-02T18:43:07.962Z,13.44
2022-11-02T18:45:36.204Z,13.37
2022-11-02T18:48:05.754Z,13.40
2022-11-02T18:50:33.852Z,13.39
2022-11-02T18:53:01.691Z,13.35
2022-11-02T18:55:29.502Z,13.33
2022-11-02T18:57:57.281Z,13.33
2022-11-02T19:00:25.066Z,13.31
2022-11-02T19:02:52.894Z,13.30
2022-11-02T19:05:36.085Z,13.23
2022-11-02T19:08:21.726Z,13.16
2022-11-02T19:10:49.568Z,13.13
2022-11-02T19:13:17.402Z,13.12
2022-11-02T19:15:45.215Z,13.08
2022-11-02T19:18:12.993Z,12.95
2022-11-02T19:20:42.205Z,12.91
2022-11-02T19:23:10.714Z,12.91
2022-11-02T19:25:38.810Z,12.92
2022-11-02T19:28:06.954Z,12.93
2022-11-02T19:30:35.150Z,12.95
2022-11-02T19:33:03.389Z,12.97
2022-11-02T19:35:31.332Z,13.01
2022-11-02T19:38:00.477Z,13.05
2022-11-02T19:40:28.337Z,13.04
2022-11-02T19:42:56.116Z,13.04
2022-11-02T19:45:23.904Z,13.00
2022-11-02T19:47:51.826Z,12.95
2022-11-02T19:50:19.706Z,12.90
2022-11-02T19:52:49.020Z,12.89
2022-11-02T19:55:18.372Z,12.89
2022-11-02T19:57:46.154Z,12.89
2022-11-02T20:00:15.406Z,12.82
2022-11-02T20:02:43.270Z,12.74
2022-11-02T20:05:12.668Z,12.76
2022-11-02T20:07:40.459Z,12.69
2022-11-02T20:10:09.154Z,12.58
2022-11-02T20:12:38.673Z,12.48
2022-11-02T20:15:07.957Z,12.45
2022-11-02T20:17:52.125Z,12.30
2022-11-02T20:20:23.581Z,12.19
2022-11-02T20:22:51.722Z,12.26
2022-11-02T20:25:19.499Z,12.22
2022-11-02T20:27:48.664Z,12.16
2022-11-02T20:30:18.986Z,12.12
2022-11-02T20:32:46.963Z,12.11
2022-11-02T20:35:16.251Z,12.13
2022-11-02T20:37:44.088Z,12.18
2022-11-02T20:40:12.595Z,12.25
2022-11-02T20:42:40.464Z,12.28
2022-11-02T20:45:10.772Z,12.32
2022-11-02T20:47:39.264Z,12.35
2022-11-02T20:50:11.374Z,12.38
2022-11-02T20:52:40.689Z,12.38
2022-11-02T20:55:09.299Z,12.31
2022-11-02T20:57:37.733Z,12.24
2022-11-02T21:00:06.736Z,12.23
2022-11-02T21:02:35.936Z,12.14
2022-11-02T21:05:04.804Z,12.04
2022-11-02T21:07:32.618Z,11.97
2022-11-02T21:10:00.396Z,11.93
2022-11-02T21:12:45.904Z,11.90
2022-11-02T21:15:13.844Z,11.90
2022-11-02T21:17:43.096Z,11.96
2022-11-02T21:20:33.210Z,11.99
2022-11-02T21:23:00.628Z,12.04
2022-11-02T21:25:28.683Z,12.03
2022-11-02T21:27:56.576Z,12.05
2022-11-02T21:30:24.408Z,12.04
2022-11-02T21:32:54.507Z,12.04
2022-11-02T21:35:22.371Z,12.04
2022-11-02T21:37:50.366Z,12.03
2022-11-02T21:40:18.548Z,12.03
2022-11-02T21:42:46.316Z,12.00
2022-11-02T21:45:17.956Z,12.00
2022-11-02T21:47:46.326Z,12.00
2022-11-02T21:50:15.538Z,11.99
2022-11-02T21:52:45.227Z,11.87
2022-11-02T21:55:13.270Z,11.76
2022-11-02T21:57:41.072Z,11.69
2022-11-02T22:00:10.215Z,11.65
2022-11-02T22:02:39.519Z,11.65
2022-11-02T22:05:07.819Z,11.65
2022-11-02T22:07:56.946Z,11.63
2022-11-02T22:10:24.747Z,11.63
2022-11-02T22:13:09.840Z,11.60
2022-11-02T22:15:38.552Z,11.49
2022-11-02T22:18:06.512Z,11.43
2022-11-02T22:20:34.281Z,11.38
2022-11-02T22:23:03.624Z,11.22
2022-11-02T22:25:31.681Z,11.18
2022-11-02T22:27:59.495Z,11.17
2022-11-02T22:30:29.357Z,11.15
2022-11-02T22:32:57.145Z,11.14
2022-11-02T22:35:24.995Z,11.21
2022-11-02T22:38:10.591Z,11.34
2022-11-02T22:40:39.773Z,11.41
2022-11-02T22:43:07.862Z,11.43
2022-11-02T22:45:35.894Z,11.41
2022-11-02T22:48:03.687Z,11.34
2022-11-02T22:50:31.521Z,11.26
2022-11-02T22:52:59.310Z,11.26
2022-11-02T22:55:27.073Z,11.31
2022-11-02T22:57:59.760Z,11.31
2022-11-02T23:00:27.967Z,11.32
2022-11-02T23:02:55.730Z,11.31
2022-11-02T23:05:23.786Z,11.28
2022-11-02T23:07:51.570Z,11.24
2022-11-02T23:10:33.287Z,11.17
2022-11-02T23:13:02.488Z,11.06
2022-11-02T23:15:31.324Z,10.94
2022-11-02T23:17:59.114Z,10.82
2022-11-02T23:20:25.939Z,10.68
2022-11-02T23:23:10.990Z,10.57
2022-11-02T23:25:38.790Z,10.57
2022-11-02T23:28:25.594Z,10.64
2022-11-02T23:31:13.174Z,10.73
2022-11-02T23:33:43.829Z,10.77
2022-11-02T23:36:15.236Z,10.84
2022-11-02T23:39:02.000Z,10.87
2022-11-02T23:41:30.983Z,10.80
2022-11-02T23:44:12.547Z,10.84
2022-11-02T23:46:41.196Z,10.81
2022-11-02T23:49:08.998Z,10.75
2022-11-02T23:51:54.333Z,10.69
2022-11-02T23:54:40.053Z,10.63
2022-11-02T23:57:08.217Z,10.75
2022-11-02T23:59:37.382Z,10.69
